Time;durP1;ratioP1;P1;durP2;ratioP2;P2;SDS_P1;SDS_P2;PMS_P1;PMS_P2;Temp;Humidity;BMP_temperature;BMP_pressure;BME280_temperature;BME280_humidity;BME280_pressure;Samples;Min_cycle;Max_cycle;Signal;HPM_P1;HPM_P2
2023/07/04 00:01:48;;;;;;;5.80;1.10;;;12.70;99.90;;;;;;5012196;28;20431;-75
2023/07/04 00:04:19;;;;;;;7.13;1.53;;;12.80;99.90;;;;;;5024974;28;20430;-75
2023/07/04 00:06:47;;;;;;;8.20;1.93;;;12.80;99.90;;;;;;5007501;28;20432;-75
2023/07/04 00:09:15;;;;;;;9.07;1.88;;;12.70;99.90;;;;;;5011876;28;20498;-75
2023/07/04 00:11:41;;;;;;;10.63;1.48;;;12.70;99.90;;;;;;4992753;28;20440;-76
2023/07/04 00:14:07;;;;;;;7.23;1.70;;;12.60;99.90;;;;;;4977065;28;20895;-74
2023/07/04 00:16:33;;;;;;;8.73;1.65;;;12.60;99.90;;;;;;5011409;28;20427;-76
2023/07/04 00:18:59;;;;;;;9.90;1.90;;;12.70;99.90;;;;;;4988695;28;20438;-76
2023/07/04 00:21:26;;;;;;;6.13;1.73;;;12.60;99.90;;;;;;5014821;28;20422;-76
2023/07/04 00:23:54;;;;;;;7.97;1.80;;;12.50;99.90;;;;;;5016924;28;20456;-76
2023/07/04 00:26:22;;;;;;;6.00;1.92;;;12.60;99.90;;;;;;5013701;28;20436;-74
2023/07/04 00:28:48;;;;;;;7.30;1.27;;;12.50;99.90;;;;;;5015989;28;20459;-74
2023/07/04 00:31:17;;;;;;;10.15;1.58;;;12.50;99.90;;;;;;5024116;28;20510;-75
2023/07/04 00:33:43;;;;;;;8.13;1.67;;;12.40;99.90;;;;;;5013505;28;20432;-75
2023/07/04 00:36:11;;;;;;;5.72;2.15;;;12.40;99.90;;;;;;5012913;28;20424;-76
2023/07/04 00:38:41;;;;;;;7.43;1.80;;;12.40;99.90;;;;;;4995133;28;20800;-73
2023/07/04 00:41:14;;;;;;;7.35;1.90;;;12.30;99.90;;;;;;5001208;28;20419;-75
2023/07/04 00:43:58;;;;;;;7.47;2.58;;;12.30;99.90;;;;;;5014972;28;20424;-74
2023/07/04 00:46:39;;;;;;;8.15;1.80;;;12.20;99.90;;;;;;5015373;28;20431;-75
2023/07/04 00:49:21;;;;;;;10.15;1.73;;;12.20;99.90;;;;;;5013109;28;20412;-75
2023/07/04 00:51:55;;;;;;;9.75;1.90;;;12.20;99.90;;;;;;4998154;28;20524;-75
2023/07/04 00:54:24;;;;;;;6.82;2.00;;;12.10;99.90;;;;;;4992575;28;20428;-75
2023/07/04 00:56:55;;;;;;;7.93;2.85;;;12.20;99.90;;;;;;5007274;28;20438;-75
2023/07/04 00:59:22;;;;;;;7.18;2.20;;;12.20;99.90;;;;;;4995227;28;20424;-75
2023/07/04 01:01:48;;;;;;;7.35;1.95;;;12.20;99.90;;;;;;5019929;28;20467;-74
2023/07/04 01:04:14;;;;;;;7.80;1.60;;;12.10;99.90;;;;;;5015723;28;20467;-76
2023/07/04 01:06:49;;;;;;;7.38;1.83;;;12.10;99.90;;;;;;5013765;28;20460;-75
2023/07/04 01:09:17;;;;;;;7.43;2.10;;;12.10;99.90;;;;;;5013739;28;20471;-75
2023/07/04 01:11:45;;;;;;;6.30;2.90;;;12.10;99.90;;;;;;4990918;28;20514;-73
2023/07/04 01:14:27;;;;;;;6.25;1.90;;;12.20;99.90;;;;;;5026262;28;20956;-75
2023/07/04 01:16:54;;;;;;;8.80;2.30;;;12.20;99.90;;;;;;5028259;28;20920;-74
2023/07/04 01:19:30;;;;;;;4.53;2.03;;;12.20;99.90;;;;;;5024134;28;22883;-74
2023/07/04 01:22:15;;;;;;;8.10;1.70;;;12.20;99.90;;;;;;5019153;28;20996;-75
2023/07/04 01:25:03;;;;;;;9.55;1.70;;;12.30;99.90;;;;;;5028310;28;20999;-75
2023/07/04 01:27:29;;;;;;;6.78;1.83;;;12.20;99.90;;;;;;5022581;28;20465;-75
2023/07/04 01:30:00;;;;;;;8.68;2.35;;;12.30;99.90;;;;;;5026052;28;20519;-75
2023/07/04 01:32:26;;;;;;;4.35;1.50;;;12.30;99.90;;;;;;5012290;28;20443;-74
2023/07/04 01:34:58;;;;;;;6.32;1.77;;;12.40;99.90;;;;;;5010180;28;20435;-73
2023/07/04 01:37:25;;;;;;;7.32;2.00;;;12.40;99.90;;;;;;5005786;28;20442;-75
2023/07/04 01:39:50;;;;;;;7.07;2.10;;;12.30;99.90;;;;;;5000808;28;20439;-76
2023/07/04 01:42:18;;;;;;;6.37;1.93;;;12.30;99.90;;;;;;5008916;28;20436;-75
2023/07/04 01:44:44;;;;;;;7.25;1.60;;;12.30;99.90;;;;;;5012016;28;20460;-75
2023/07/04 01:47:10;;;;;;;7.95;2.80;;;12.40;99.90;;;;;;4999791;28;20474;-75
2023/07/04 01:49:35;;;;;;;4.85;1.60;;;12.40;99.90;;;;;;5025303;28;20507;-75
2023/07/04 01:52:01;;;;;;;6.40;2.17;;;12.40;99.90;;;;;;4992875;28;20449;-75
2023/07/04 01:54:27;;;;;;;10.80;2.55;;;12.50;99.90;;;;;;5009492;28;20475;-76
2023/07/04 01:56:53;;;;;;;6.20;1.70;;;12.40;99.90;;;;;;5010335;28;20787;-74
2023/07/04 01:59:21;;;;;;;7.50;2.78;;;12.50;99.90;;;;;;5016261;28;20428;-75
2023/07/04 02:01:47;;;;;;;10.70;2.10;;;12.60;99.90;;;;;;5010888;28;20501;-74
2023/07/04 02:04:13;;;;;;;6.28;2.30;;;12.50;99.90;;;;;;5009743;28;20411;-75
2023/07/04 02:06:39;;;;;;;6.23;2.53;;;12.60;99.90;;;;;;5010217;28;20431;-77
2023/07/04 02:09:04;;;;;;;8.93;2.57;;;12.60;99.90;;;;;;5012056;28;20428;-75
2023/07/04 02:11:30;;;;;;;7.60;2.05;;;12.50;99.90;;;;;;5009951;28;21009;-75
2023/07/04 02:13:56;;;;;;;5.82;2.10;;;12.60;99.90;;;;;;5020993;28;20510;-73
2023/07/04 02:16:21;;;;;;;6.63;2.30;;;12.60;99.90;;;;;;5025436;28;20571;-75
2023/07/04 02:18:47;;;;;;;5.57;1.67;;;12.70;99.90;;;;;;5005214;28;20429;-73
2023/07/04 02:21:13;;;;;;;5.83;1.70;;;12.80;99.90;;;;;;5008671;28;20421;-73
2023/07/04 02:23:39;;;;;;;4.37;1.50;;;12.80;99.90;;;;;;5010332;28;20416;-77
2023/07/04 02:26:04;;;;;;;10.30;2.67;;;12.90;99.90;;;;;;5009438;28;20425;-75
2023/07/04 02:28:30;;;;;;;4.87;2.00;;;12.90;99.90;;;;;;5006615;28;20420;-75
2023/07/04 02:30:58;;;;;;;10.75;2.67;;;12.90;99.90;;;;;;5019118;28;20549;-75
2023/07/04 02:33:24;;;;;;;6.00;1.48;;;12.90;99.90;;;;;;4989482;28;20942;-75
2023/07/04 02:35:50;;;;;;;4.93;1.77;;;12.90;99.90;;;;;;5003896;28;20422;-73
2023/07/04 02:38:17;;;;;;;5.38;1.52;;;12.90;99.90;;;;;;5005937;28;20430;-75
2023/07/04 02:40:44;;;;;;;5.88;1.33;;;12.80;99.90;;;;;;4992883;28;20503;-73
2023/07/04 02:43:11;;;;;;;4.43;1.67;;;12.80;99.90;;;;;;5016761;28;20441;-76
2023/07/04 02:45:37;;;;;;;2.35;0.82;;;12.70;99.90;;;;;;5017202;28;20427;-75
2023/07/04 02:48:02;;;;;;;4.95;1.35;;;12.60;99.90;;;;;;5010309;28;20547;-74
2023/07/04 02:50:28;;;;;;;7.47;2.13;;;12.60;99.90;;;;;;5019353;28;20673;-73
2023/07/04 02:52:54;;;;;;;7.05;1.40;;;12.50;99.90;;;;;;5009147;28;20443;-74
2023/07/04 02:55:20;;;;;;;5.97;1.00;;;12.50;99.90;;;;;;5006203;28;20428;-74
2023/07/04 02:57:46;;;;;;;5.60;1.45;;;12.50;99.90;;;;;;5009200;28;20425;-74
2023/07/04 03:00:12;;;;;;;1.88;0.90;;;12.60;99.90;;;;;;4989570;28;20957;-74
2023/07/04 03:02:37;;;;;;;6.20;2.15;;;12.50;99.90;;;;;;5009704;28;20436;-73
2023/07/04 03:05:04;;;;;;;3.53;1.17;;;12.40;99.90;;;;;;5007136;28;20432;-73
2023/07/04 03:07:29;;;;;;;2.63;1.50;;;12.40;99.90;;;;;;5007616;28;21002;-74
2023/07/04 03:09:55;;;;;;;4.63;0.93;;;12.50;99.90;;;;;;5011228;28;20426;-74
2023/07/04 03:12:21;;;;;;;3.07;1.70;;;12.30;99.90;;;;;;5018798;28;20437;-76
2023/07/04 03:14:46;;;;;;;4.88;1.30;;;12.30;99.90;;;;;;5027020;28;20434;-73
2023/07/04 03:17:12;;;;;;;3.17;0.90;;;12.30;99.90;;;;;;5016753;28;20417;-75
2023/07/04 03:19:38;;;;;;;6.65;1.25;;;12.20;99.90;;;;;;5008413;28;20428;-73
2023/07/04 03:22:03;;;;;;;3.75;1.00;;;12.30;99.90;;;;;;5010632;28;20422;-74
2023/07/04 03:24:30;;;;;;;5.25;1.20;;;12.20;99.90;;;;;;5002293;28;21006;-74
2023/07/04 03:26:56;;;;;;;6.43;1.73;;;12.20;99.90;;;;;;5001743;28;20427;-74
2023/07/04 03:29:22;;;;;;;3.83;0.90;;;12.20;99.90;;;;;;5012673;28;20420;-75
2023/07/04 03:31:48;;;;;;;3.17;1.17;;;12.10;99.90;;;;;;5022421;28;20431;-74
2023/07/04 03:34:13;;;;;;;4.40;1.63;;;12.20;99.90;;;;;;5012352;28;20718;-72
2023/07/04 03:36:39;;;;;;;5.00;1.40;;;12.20;99.90;;;;;;5007109;28;20455;-73
2023/07/04 03:39:05;;;;;;;3.83;1.70;;;12.30;99.90;;;;;;5009883;28;20463;-76
2023/07/04 03:41:31;;;;;;;6.35;1.90;;;12.40;99.90;;;;;;5007197;28;20493;-75
2023/07/04 03:43:57;;;;;;;3.08;1.02;;;12.40;99.90;;;;;;5011163;28;20458;-76
2023/07/04 03:46:23;;;;;;;2.53;1.10;;;12.30;99.90;;;;;;5025923;28;20446;-76
2023/07/04 03:48:49;;;;;;;4.28;1.45;;;12.30;99.90;;;;;;5007279;28;20497;-74
2023/07/04 03:51:16;;;;;;;5.57;1.50;;;12.30;99.90;;;;;;5016519;28;22376;-75
2023/07/04 03:53:42;;;;;;;4.07;1.25;;;12.30;99.90;;;;;;5003041;28;20441;-77
2023/07/04 03:56:07;;;;;;;6.10;1.10;;;12.30;99.90;;;;;;5005204;28;20763;-75
2023/07/04 03:58:33;;;;;;;3.25;1.20;;;12.40;99.90;;;;;;5005660;28;20799;-74
2023/07/04 04:01:00;;;;;;;4.72;1.42;;;12.40;99.90;;;;;;4994296;28;20910;-75
2023/07/04 04:03:26;;;;;;;4.63;1.02;;;12.50;99.90;;;;;;5005487;28;20432;-75
2023/07/04 04:05:51;;;;;;;6.03;1.58;;;12.50;99.90;;;;;;5005035;28;20967;-74
2023/07/04 04:08:17;;;;;;;3.80;1.10;;;12.60;99.90;;;;;;5007773;28;20432;-75
2023/07/04 04:11:02;;;;;;;3.10;1.38;;;12.60;99.90;;;;;;5006511;28;20533;-76
2023/07/04 04:13:46;;;;;;;4.30;1.92;;;12.70;99.90;;;;;;4987434;28;20433;-74
2023/07/04 04:16:30;;;;;;;4.03;1.90;;;12.70;99.90;;;;;;5002796;28;20521;-76
2023/07/04 04:18:56;;;;;;;4.93;1.20;;;12.70;99.90;;;;;;5008760;28;20993;-77
2023/07/04 04:21:21;;;;;;;4.40;1.30;;;12.80;99.90;;;;;;5004231;28;20443;-76
2023/07/04 04:23:47;;;;;;;7.20;3.30;;;12.80;99.90;;;;;;4996950;28;20809;-75
2023/07/04 04:26:15;;;;;;;7.67;1.80;;;12.80;99.90;;;;;;5005030;28;20436;-74
2023/07/04 04:28:40;;;;;;;4.60;1.50;;;12.90;99.90;;;;;;4980270;28;20878;-75
2023/07/04 04:31:06;;;;;;;3.10;1.23;;;12.90;99.90;;;;;;4975674;28;20440;-75
2023/07/04 04:33:32;;;;;;;4.95;1.55;;;13.00;99.90;;;;;;4999348;28;20821;-75
2023/07/04 04:35:58;;;;;;;3.72;1.38;;;13.10;99.90;;;;;;4996003;28;20831;-74
2023/07/04 04:38:23;;;;;;;3.78;1.50;;;13.10;99.90;;;;;;5013396;28;20468;-74
2023/07/04 04:40:50;;;;;;;5.03;1.90;;;13.00;99.90;;;;;;5006079;28;20419;-77
2023/07/04 04:43:16;;;;;;;3.75;1.70;;;13.10;99.90;;;;;;5011120;28;20447;-75
2023/07/04 04:45:41;;;;;;;7.63;1.87;;;13.10;99.90;;;;;;5009351;28;20425;-75
2023/07/04 04:48:07;;;;;;;5.32;2.00;;;13.20;99.90;;;;;;5007391;28;20432;-75
2023/07/04 04:50:33;;;;;;;6.63;2.17;;;13.20;99.90;;;;;;5010390;28;20418;-74
2023/07/04 04:52:59;;;;;;;5.68;1.70;;;13.20;99.90;;;;;;5010633;28;20443;-74
2023/07/04 04:55:26;;;;;;;4.77;1.97;;;13.10;99.90;;;;;;5017217;28;20415;-75
2023/07/04 04:57:52;;;;;;;5.22;1.48;;;13.30;99.90;;;;;;5012612;28;20491;-73
2023/07/04 05:00:19;;;;;;;6.25;2.65;;;13.30;99.90;;;;;;5021447;28;20471;-73
2023/07/04 05:02:45;;;;;;;4.38;1.50;;;13.40;99.90;;;;;;5020107;28;20405;-74
2023/07/04 05:05:11;;;;;;;5.68;1.83;;;13.40;99.90;;;;;;4986330;28;21001;-74
2023/07/04 05:07:37;;;;;;;4.35;1.73;;;13.40;99.90;;;;;;5003986;28;20434;-74
2023/07/04 05:10:03;;;;;;;7.03;2.10;;;13.50;99.90;;;;;;5009571;28;20427;-75
2023/07/04 05:12:30;;;;;;;4.28;1.80;;;13.40;99.90;;;;;;4991842;28;20573;-75
2023/07/04 05:14:55;;;;;;;6.50;2.20;;;13.50;99.90;;;;;;5004308;28;20445;-73
2023/07/04 05:17:21;;;;;;;12.02;2.47;;;13.50;99.90;;;;;;5011437;28;20429;-74
2023/07/04 05:19:48;;;;;;;7.85;1.83;;;13.50;99.90;;;;;;5009475;28;20504;-73
2023/07/04 05:22:14;;;;;;;5.85;2.08;;;13.60;99.90;;;;;;4993600;28;20776;-74
2023/07/04 05:24:40;;;;;;;4.00;1.45;;;13.70;99.90;;;;;;5020309;28;20426;-74
2023/07/04 05:27:06;;;;;;;6.93;2.50;;;13.80;99.90;;;;;;5029479;28;20439;-74
2023/07/04 05:29:32;;;;;;;6.07;1.67;;;13.80;99.90;;;;;;5019415;28;20754;-75
2023/07/04 05:31:58;;;;;;;8.90;1.70;;;13.90;99.90;;;;;;5027910;28;20442;-76
2023/07/04 05:34:23;;;;;;;5.90;1.50;;;13.90;99.90;;;;;;5014271;28;20431;-76
2023/07/04 05:36:49;;;;;;;5.73;1.30;;;13.90;99.90;;;;;;5001375;28;20434;-77
2023/07/04 05:39:15;;;;;;;6.90;2.13;;;14.00;99.90;;;;;;5007952;28;20422;-77
2023/07/04 05:41:41;;;;;;;9.00;2.45;;;14.10;99.90;;;;;;5009245;28;20442;-77
2023/07/04 05:44:08;;;;;;;7.72;1.90;;;14.10;99.90;;;;;;5009172;28;21178;-76
2023/07/04 05:46:35;;;;;;;8.02;2.13;;;14.20;99.90;;;;;;5014273;28;20857;-74
2023/07/04 05:49:02;;;;;;;4.70;1.40;;;14.20;99.90;;;;;;5003379;28;20424;-75
2023/07/04 05:51:28;;;;;;;5.38;1.42;;;14.20;99.90;;;;;;4997131;28;20474;-75
2023/07/04 05:53:54;;;;;;;4.30;1.27;;;14.20;99.90;;;;;;5002673;28;20434;-75
2023/07/04 05:56:24;;;;;;;7.72;1.75;;;14.40;99.90;;;;;;5013983;28;20768;-77
2023/07/04 05:58:58;;;;;;;4.97;0.90;;;14.50;99.90;;;;;;5004430;28;20414;-73
2023/07/04 06:01:40;;;;;;;7.97;1.85;;;14.50;99.90;;;;;;5016797;28;20773;-75
2023/07/04 06:04:08;;;;;;;5.68;2.13;;;14.70;99.90;;;;;;5011231;28;20760;-76
2023/07/04 06:06:39;;;;;;;8.10;1.40;;;14.80;99.90;;;;;;5029197;28;20419;-75
2023/07/04 06:09:14;;;;;;;9.10;2.95;;;14.80;99.90;;;;;;5030934;28;20407;-75
2023/07/04 06:11:45;;;;;;;5.68;1.02;;;14.80;99.90;;;;;;4994528;28;20432;-76
2023/07/04 06:14:15;;;;;;;6.00;1.20;;;14.80;99.90;;;;;;5011857;28;20815;-76
2023/07/04 06:16:41;;;;;;;7.10;1.33;;;14.90;99.90;;;;;;4995281;28;20424;-75
2023/07/04 06:19:07;;;;;;;4.30;1.20;;;15.00;99.90;;;;;;5011755;28;20416;-74
2023/07/04 06:21:32;;;;;;;5.53;1.50;;;15.10;99.90;;;;;;5003116;28;20427;-76
2023/07/04 06:23:58;;;;;;;6.23;1.30;;;15.00;99.90;;;;;;4990816;28;21016;-74
2023/07/04 06:26:27;;;;;;;7.32;1.55;;;15.00;99.90;;;;;;5021868;28;20427;-77
2023/07/04 06:28:55;;;;;;;4.37;1.07;;;15.10;99.90;;;;;;5001306;28;20475;-74
2023/07/04 06:31:21;;;;;;;5.65;1.00;;;15.30;99.90;;;;;;4991565;28;20428;-74
2023/07/04 06:33:47;;;;;;;6.60;1.20;;;15.20;99.90;;;;;;5001549;28;20447;-74
2023/07/04 06:36:14;;;;;;;6.03;1.20;;;15.40;99.90;;;;;;5006009;28;20416;-75
2023/07/04 06:38:41;;;;;;;7.57;1.83;;;15.30;99.90;;;;;;5002806;28;20444;-77
2023/07/04 06:41:13;;;;;;;8.48;2.08;;;15.40;99.90;;;;;;4994839;28;20427;-75
2023/07/04 06:43:44;;;;;;;5.93;1.57;;;15.50;99.90;;;;;;5011188;28;20965;-75
2023/07/04 06:46:11;;;;;;;4.50;1.50;;;15.50;99.90;;;;;;5011546;28;20427;-76
2023/07/04 06:48:37;;;;;;;4.70;1.10;;;15.50;99.90;;;;;;5018188;28;20527;-76
2023/07/04 06:51:10;;;;;;;4.85;1.70;;;15.60;99.90;;;;;;5023010;28;20438;-75
2023/07/04 06:53:36;;;;;;;4.10;1.20;;;15.70;99.90;;;;;;5029646;28;20931;-76
2023/07/04 06:56:10;;;;;;;5.13;1.70;;;15.70;99.90;;;;;;5022512;28;20430;-74
2023/07/04 06:58:41;;;;;;;3.00;1.05;;;16.00;99.90;;;;;;4990558;28;20434;-75
2023/07/04 07:01:08;;;;;;;6.30;1.23;;;16.40;99.90;;;;;;5006138;28;20482;-76
2023/07/04 07:03:34;;;;;;;3.92;1.15;;;16.40;99.90;;;;;;5009234;28;20431;-74
2023/07/04 07:06:05;;;;;;;5.38;1.00;;;16.30;99.90;;;;;;5014346;28;20423;-75
2023/07/04 07:08:31;;;;;;;3.67;1.00;;;16.30;99.90;;;;;;5007947;28;20428;-75
2023/07/04 07:11:03;;;;;;;6.35;1.65;;;16.10;99.90;;;;;;5008101;28;20424;-78
2023/07/04 07:13:29;;;;;;;5.75;1.30;;;16.30;99.90;;;;;;5007837;28;20769;-74
2023/07/04 07:16:16;;;;;;;3.83;1.10;;;16.40;99.90;;;;;;5010921;28;20443;-75
2023/07/04 07:18:43;;;;;;;4.43;1.20;;;16.50;99.90;;;;;;5014886;28;20924;-74
2023/07/04 07:21:10;;;;;;;6.45;1.40;;;17.20;99.90;;;;;;5016065;28;20863;-74
2023/07/04 07:23:37;;;;;;;3.55;1.17;;;16.70;99.90;;;;;;4999332;28;20458;-76
2023/07/04 07:26:05;;;;;;;4.53;1.35;;;16.60;99.90;;;;;;4981707;28;20528;-75
2023/07/04 07:28:33;;;;;;;5.60;1.45;;;16.50;99.90;;;;;;5020580;28;20436;-75
2023/07/04 07:31:13;;;;;;;5.53;1.47;;;16.50;99.90;;;;;;5022572;28;20844;-75
2023/07/04 07:33:41;;;;;;;4.55;1.00;;;16.40;99.90;;;;;;5010083;28;20416;-76
2023/07/04 07:36:13;;;;;;;5.63;1.30;;;16.40;99.90;;;;;;5013625;28;20502;-79
2023/07/04 07:38:39;;;;;;;6.50;1.73;;;16.50;99.90;;;;;;5013584;28;20968;-77
2023/07/04 07:41:05;;;;;;;6.65;1.10;;;17.00;99.90;;;;;;5017879;28;20423;-75
2023/07/04 07:43:36;;;;;;;6.20;1.60;;;17.20;99.90;;;;;;5029100;28;20449;-76
2023/07/04 07:46:02;;;;;;;5.45;1.30;;;16.80;99.90;;;;;;5022788;28;20511;-76
2023/07/04 07:48:28;;;;;;;10.93;1.75;;;16.70;99.90;;;;;;5008276;28;21222;-75
2023/07/04 07:50:54;;;;;;;6.35;1.48;;;16.60;99.90;;;;;;5009009;28;20416;-74
2023/07/04 07:53:19;;;;;;;4.27;1.30;;;16.70;99.90;;;;;;5006626;28;20531;-74
2023/07/04 07:55:45;;;;;;;7.77;1.80;;;16.80;99.90;;;;;;5018466;28;20422;-75
2023/07/04 07:58:11;;;;;;;7.17;1.40;;;17.00;99.90;;;;;;5014593;28;20799;-75
2023/07/04 08:00:37;;;;;;;8.45;2.00;;;17.10;99.90;;;;;;5008383;28;20479;-74
2023/07/04 08:03:03;;;;;;;7.70;1.38;;;17.10;99.90;;;;;;5009183;28;20433;-75
2023/07/04 08:05:28;;;;;;;4.65;1.48;;;17.00;99.90;;;;;;5007130;28;20780;-75
2023/07/04 08:07:54;;;;;;;5.72;1.88;;;16.90;99.90;;;;;;5007396;28;20462;-74
2023/07/04 08:10:20;;;;;;;6.90;1.57;;;17.00;99.90;;;;;;5003420;28;20417;-74
2023/07/04 08:12:46;;;;;;;9.67;1.87;;;17.00;99.90;;;;;;4990654;28;20443;-76
2023/07/04 08:15:11;;;;;;;8.77;3.03;;;17.10;99.90;;;;;;4988638;28;20428;-75
2023/07/04 08:17:38;;;;;;;12.07;3.05;;;17.10;99.90;;;;;;4998114;28;20416;-75
2023/07/04 08:20:05;;;;;;;7.38;2.00;;;16.90;99.90;;;;;;5008389;28;20446;-75
2023/07/04 08:22:31;;;;;;;8.15;2.05;;;16.90;99.90;;;;;;5007317;28;20500;-76
2023/07/04 08:24:58;;;;;;;10.25;2.78;;;17.00;99.90;;;;;;5006163;28;20417;-75
2023/07/04 08:27:25;;;;;;;6.63;1.70;;;17.10;99.90;;;;;;5012150;28;20838;-76
2023/07/04 08:29:51;;;;;;;9.95;3.38;;;17.00;99.90;;;;;;5013572;28;20408;-76
2023/07/04 08:32:18;;;;;;;11.63;3.42;;;17.00;99.90;;;;;;4990204;28;20432;-75
2023/07/04 08:34:45;;;;;;;6.72;2.00;;;17.10;99.90;;;;;;5012750;28;20408;-74
2023/07/04 08:37:13;;;;;;;11.40;2.80;;;17.10;99.90;;;;;;5014638;28;20420;-76
2023/07/04 08:39:38;;;;;;;11.18;3.35;;;17.30;99.90;;;;;;5011786;28;20413;-77
2023/07/04 08:42:06;;;;;;;8.80;2.42;;;17.20;99.90;;;;;;5012706;28;20405;-75
2023/07/04 08:44:45;;;;;;;9.57;2.97;;;17.10;99.90;;;;;;5011003;28;20859;-74
2023/07/04 08:47:14;;;;;;;10.82;2.58;;;17.30;99.90;;;;;;5010356;28;20427;-75
2023/07/04 08:50:09;;;;;;;10.20;2.80;;;17.10;99.90;;;;;;4977374;28;20756;-73
2023/07/04 08:52:49;;;;;;;10.90;2.33;;;17.60;99.90;;;;;;5009329;28;20436;-75
2023/07/04 08:55:16;;;;;;;12.55;2.90;;;18.00;99.90;;;;;;4992033;28;20503;-75
2023/07/04 08:58:00;;;;;;;9.30;2.33;;;18.40;99.90;;;;;;5011911;28;20424;-75
2023/07/04 09:00:43;;;;;;;9.52;3.25;;;18.40;99.90;;;;;;5010538;28;20451;-76
2023/07/04 09:03:21;;;;;;;11.18;2.28;;;18.10;99.90;;;;;;5011045;28;20409;-76
2023/07/04 09:05:56;;;;;;;8.88;2.13;;;17.90;99.90;;;;;;5010850;28;20488;-75
2023/07/04 09:08:43;;;;;;;8.82;2.42;;;18.00;99.90;;;;;;5009970;28;20412;-75
2023/07/04 09:11:11;;;;;;;11.48;2.80;;;18.10;99.90;;;;;;5011317;28;20416;-75
2023/07/04 09:13:42;;;;;;;9.02;2.65;;;18.40;99.90;;;;;;5010655;28;20405;-75
2023/07/04 09:16:18;;;;;;;10.80;2.20;;;18.40;99.90;;;;;;5010013;28;20432;-75
2023/07/04 09:19:01;;;;;;;8.27;2.22;;;18.60;99.90;;;;;;4992672;28;20484;-74
2023/07/04 09:21:29;;;;;;;9.63;2.97;;;18.80;99.90;;;;;;4993579;28;20451;-75
2023/07/04 09:23:58;;;;;;;9.80;2.38;;;18.80;99.90;;;;;;4975839;28;20430;-75
2023/07/04 09:26:28;;;;;;;7.38;2.47;;;19.10;99.90;;;;;;5003512;28;20428;-75
2023/07/04 09:28:56;;;;;;;11.35;3.47;;;19.30;99.90;;;;;;5011462;28;20917;-75
2023/07/04 09:31:32;;;;;;;11.63;2.72;;;19.30;99.90;;;;;;5009608;28;20416;-75
2023/07/04 09:34:03;;;;;;;12.18;2.70;;;19.50;99.90;;;;;;5009954;28;20413;-76
2023/07/04 09:36:35;;;;;;;9.13;2.80;;;19.30;99.90;;;;;;5009154;28;20439;-75
2023/07/04 09:39:05;;;;;;;6.30;2.20;;;19.20;99.90;;;;;;4974644;28;20432;-78
2023/07/04 09:41:33;;;;;;;10.77;2.95;;;19.10;99.90;;;;;;4992994;28;20401;-75
2023/07/04 09:44:14;;;;;;;7.43;1.90;;;18.80;99.90;;;;;;5010476;28;20729;-76
2023/07/04 09:46:50;;;;;;;11.13;2.67;;;18.80;99.90;;;;;;5009269;28;20439;-76
2023/07/04 09:49:31;;;;;;;10.95;2.72;;;18.60;99.90;;;;;;4992624;28;20779;-76
2023/07/04 09:52:03;;;;;;;7.32;1.70;;;18.70;99.90;;;;;;5009529;28;20421;-75
2023/07/04 09:54:40;;;;;;;8.32;2.55;;;19.00;99.90;;;;;;4991510;28;20938;-77
2023/07/04 09:57:27;;;;;;;5.47;2.17;;;18.80;99.90;;;;;;5009382;28;20421;-76
2023/07/04 09:59:53;;;;;;;5.45;1.80;;;18.30;99.90;;;;;;5009195;28;21066;-76
2023/07/04 10:02:25;;;;;;;8.50;2.50;;;18.10;99.90;;;;;;5009392;28;20425;-75
2023/07/04 10:04:52;;;;;;;7.93;1.47;;;18.20;99.90;;;;;;5008884;28;20994;-77
2023/07/04 10:07:21;;;;;;;10.10;2.15;;;18.10;99.90;;;;;;4992596;28;20415;-76
2023/07/04 10:09:58;;;;;;;7.63;1.83;;;18.10;99.90;;;;;;4989751;28;20422;-77
2023/07/04 10:12:26;;;;;;;9.30;2.42;;;17.80;99.90;;;;;;4994052;28;20918;-76
2023/07/04 10:14:55;;;;;;;12.30;2.63;;;18.10;99.90;;;;;;5007351;28;20839;-81
2023/07/04 10:17:27;;;;;;;12.18;2.72;;;17.90;99.90;;;;;;5008680;28;20570;-76
2023/07/04 10:19:56;;;;;;;6.17;1.60;;;18.10;99.90;;;;;;5008868;28;20503;-75
2023/07/04 10:22:24;;;;;;;6.45;1.90;;;18.30;99.90;;;;;;5009231;28;20939;-76
2023/07/04 10:24:51;;;;;;;11.43;2.17;;;18.00;99.90;;;;;;4989349;28;20428;-75
2023/07/04 10:27:20;;;;;;;7.63;2.22;;;18.00;99.90;;;;;;4993373;28;20814;-76
2023/07/04 10:29:54;;;;;;;9.25;2.30;;;18.10;99.90;;;;;;5009731;28;20409;-76
2023/07/04 10:32:21;;;;;;;7.15;1.88;;;18.50;99.90;;;;;;5003480;28;20927;-76
2023/07/04 10:34:49;;;;;;;8.32;1.80;;;18.80;99.90;;;;;;4991894;28;20463;-76
2023/07/04 10:37:31;;;;;;;7.93;1.98;;;18.60;99.90;;;;;;5008626;28;20842;-76
2023/07/04 10:40:00;;;;;;;8.07;2.10;;;18.00;99.90;;;;;;5008646;28;20397;-76
2023/07/04 10:42:41;;;;;;;9.88;2.30;;;17.80;99.90;;;;;;5008978;28;20470;-77
2023/07/04 10:45:12;;;;;;;10.40;2.00;;;18.20;99.90;;;;;;5010147;28;20417;-76
2023/07/04 10:47:39;;;;;;;10.20;2.30;;;18.40;99.90;;;;;;4992081;28;20415;-76
2023/07/04 10:50:11;;;;;;;7.95;1.98;;;18.40;99.90;;;;;;5009646;28;20875;-77
2023/07/04 10:52:43;;;;;;;7.50;1.90;;;18.10;99.90;;;;;;5009607;28;20436;-77
2023/07/04 10:55:20;;;;;;;6.77;1.93;;;18.00;99.90;;;;;;5008440;28;20483;-77
2023/07/04 10:57:56;;;;;;;9.77;2.25;;;17.90;99.90;;;;;;4992313;28;20705;-76
2023/07/04 11:00:22;;;;;;;7.15;2.03;;;17.80;99.90;;;;;;5009489;28;20791;-77
2023/07/04 11:03:01;;;;;;;7.63;2.20;;;17.60;99.90;;;;;;5009728;28;20485;-77
2023/07/04 11:05:41;;;;;;;10.75;2.85;;;18.10;99.90;;;;;;4982465;28;20465;-78
2023/07/04 11:08:13;;;;;;;7.78;1.83;;;18.60;99.90;;;;;;4989227;28;20422;-76
2023/07/04 11:10:45;;;;;;;10.88;2.10;;;18.50;99.90;;;;;;4990761;28;20420;-79
2023/07/04 11:13:18;;;;;;;9.95;2.30;;;18.90;99.90;;;;;;4994927;28;20423;-76
2023/07/04 11:15:50;;;;;;;9.93;2.00;;;19.00;99.90;;;;;;5009557;28;20424;-77
2023/07/04 11:18:18;;;;;;;10.23;3.40;;;19.30;99.90;;;;;;5015078;28;20779;-77
2023/07/04 11:20:51;;;;;;;9.68;2.25;;;18.90;99.90;;;;;;5009923;28;20791;-78
2023/07/04 11:23:20;;;;;;;8.38;2.20;;;18.50;99.90;;;;;;5008003;28;20407;-77
2023/07/04 11:25:46;;;;;;;11.10;2.40;;;18.90;99.90;;;;;;5009181;28;20425;-76
2023/07/04 11:28:17;;;;;;;12.40;3.00;;;19.20;99.90;;;;;;5010095;28;20470;-77
2023/07/04 11:30:47;;;;;;;5.10;1.80;;;19.60;99.90;;;;;;5009859;28;20914;-77
2023/07/04 11:34:01;;;;;;;6.95;1.80;;;19.30;99.90;;;;;;5009125;28;20436;-77
2023/07/04 11:36:35;;;;;;;5.82;1.65;;;19.40;99.90;;;;;;4983271;28;20433;-77
2023/07/04 11:39:49;;;;;;;9.23;1.95;;;19.70;99.90;;;;;;4993748;28;20415;-77
2023/07/04 11:42:38;;;;;;;7.75;2.08;;;19.50;99.90;;;;;;4975590;28;21003;-77
2023/07/04 11:45:13;;;;;;;9.77;2.42;;;20.00;99.90;;;;;;4994243;28;20556;-76
2023/07/04 11:47:49;;;;;;;7.18;2.03;;;19.80;99.90;;;;;;5011583;28;20416;-78
2023/07/04 11:50:19;;;;;;;6.20;2.20;;;19.90;99.90;;;;;;5003094;28;20925;-77
2023/07/04 11:52:52;;;;;;;6.50;1.73;;;20.20;99.90;;;;;;5008979;28;20440;-77
2023/07/04 11:55:25;;;;;;;8.07;1.77;;;19.80;99.90;;;;;;5005933;28;20479;-76
2023/07/04 11:58:06;;;;;;;10.55;2.88;;;20.00;99.90;;;;;;4990951;28;20488;-74
2023/07/04 12:00:40;;;;;;;8.23;2.40;;;20.00;99.90;;;;;;4989068;28;20419;-76
2023/07/04 12:03:19;;;;;;;8.07;2.10;;;20.20;99.90;;;;;;4988856;28;20398;-78
2023/07/04 12:05:56;;;;;;;10.73;3.13;;;20.20;99.90;;;;;;4998430;28;20796;-76
2023/07/04 12:08:31;;;;;;;8.53;2.40;;;19.30;99.90;;;;;;5006743;28;20405;-76
2023/07/04 12:11:05;;;;;;;9.07;2.87;;;18.70;99.90;;;;;;5013281;28;20434;-77
2023/07/04 12:13:34;;;;;;;5.82;1.55;;;19.40;99.90;;;;;;4985678;28;20438;-77
2023/07/04 12:16:02;;;;;;;6.90;1.60;;;19.90;99.90;;;;;;5019030;28;20415;-77
2023/07/04 12:18:33;;;;;;;7.95;2.03;;;19.90;99.90;;;;;;4988446;28;20842;-76
2023/07/04 12:21:00;;;;;;;8.77;2.20;;;20.20;99.90;;;;;;4993596;28;20443;-76
2023/07/04 12:23:26;;;;;;;5.40;1.60;;;20.40;99.90;;;;;;4992707;28;20467;-76
2023/07/04 12:25:54;;;;;;;8.30;2.00;;;19.80;99.90;;;;;;5008427;28;20500;-76
2023/07/04 12:28:25;;;;;;;7.00;2.20;;;19.70;99.90;;;;;;5008295;28;20444;-78
2023/07/04 12:30:59;;;;;;;6.18;1.50;;;20.00;99.90;;;;;;5007619;28;20401;-78
2023/07/04 12:33:30;;;;;;;8.02;2.00;;;20.20;99.90;;;;;;4995390;28;20474;-77
2023/07/04 12:36:06;;;;;;;5.03;1.60;;;20.30;99.90;;;;;;5003183;28;20423;-78
2023/07/04 12:38:33;;;;;;;7.80;2.03;;;20.20;99.90;;;;;;4997983;28;20447;-79
2023/07/04 12:41:00;;;;;;;10.00;2.75;;;20.50;99.90;;;;;;5006081;28;20498;-77
2023/07/04 12:43:31;;;;;;;8.43;1.75;;;20.40;99.90;;;;;;4998233;28;20433;-78
2023/07/04 12:46:15;;;;;;;7.13;2.10;;;20.80;99.90;;;;;;5002755;28;20426;-77
2023/07/04 12:48:42;;;;;;;7.53;1.83;;;20.50;99.90;;;;;;4991981;28;20438;-77
2023/07/04 12:51:13;;;;;;;9.05;2.60;;;20.80;99.90;;;;;;4972828;28;20444;-78
2023/07/04 12:53:41;;;;;;;6.22;1.60;;;20.60;99.90;;;;;;4994964;28;20430;-79
2023/07/04 12:56:10;;;;;;;9.10;2.20;;;20.40;99.90;;;;;;4990879;28;20433;-79
2023/07/04 12:58:41;;;;;;;6.78;2.13;;;20.30;99.90;;;;;;5005770;28;20429;-75